Time;durP1;ratioP1;P1;durP2;ratioP2;P2;SDS_P1;SDS_P2;PMS_P1;PMS_P2;Temp;Humidity;BMP_temperature;BMP_pressure;BME280_temperature;BME280_humidity;BME280_pressure;Samples;Min_cycle;Max_cycle;Signal;HPM_P1;HPM_P2
2024/04/15 00:03:24;;;;;;;;;40.00;7.00;;;;;;;;10455519;28;43804;-63
2024/04/15 00:08:29;;;;;;;;;35.25;4.75;;;;;;;;10431688;28;44866;-62
2024/04/15 00:13:33;;;;;;;;;31.00;6.50;;;;;;;;10460019;27;43086;-64
2024/04/15 00:18:36;;;;;;;;;33.75;6.50;;;;;;;;10471492;27;43557;-63
2024/04/15 00:23:40;;;;;;;;;34.75;4.25;;;;;;;;10502125;27;43003;-63
2024/04/15 00:28:44;;;;;;;;;34.50;3.75;;;;;;;;10470337;27;43016;-61
2024/04/15 00:33:49;;;;;;;;;21.75;1.50;;;;;;;;10479236;28;43833;-64
2024/04/15 00:38:52;;;;;;;;;33.00;3.00;;;;;;;;10499042;27;42968;-61
2024/04/15 00:43:56;;;;;;;;;47.00;6.50;;;;;;;;10487208;28;42919;-62
2024/04/15 00:48:59;;;;;;;;;39.25;8.25;;;;;;;;10491870;27;43472;-60
2024/04/15 00:54:04;;;;;;;;;22.00;1.75;;;;;;;;10470359;28;43219;-60
2024/04/15 00:59:09;;;;;;;;;30.25;4.75;;;;;;;;10470584;28;42972;-60
2024/04/15 01:04:13;;;;;;;;;35.75;3.00;;;;;;;;10470641;28;43406;-62
2024/04/15 01:09:18;;;;;;;;;32.75;4.75;;;;;;;;10469965;28;43158;-61
2024/04/15 01:14:22;;;;;;;;;28.00;5.25;;;;;;;;10451821;28;43610;-63
2024/04/15 01:19:26;;;;;;;;;24.25;3.75;;;;;;;;10433560;28;42951;-61
2024/04/15 01:24:30;;;;;;;;;32.50;2.25;;;;;;;;10449232;28;43300;-62
2024/04/15 01:29:33;;;;;;;;;38.25;3.50;;;;;;;;10450269;28;44530;-63
2024/04/15 01:34:37;;;;;;;;;27.25;4.00;;;;;;;;10459900;28;43907;-62
2024/04/15 01:39:40;;;;;;;;;24.75;1.25;;;;;;;;10454310;28;43138;-62
2024/04/15 01:44:44;;;;;;;;;38.75;2.00;;;;;;;;10464936;28;42997;-62
2024/04/15 01:49:48;;;;;;;;;28.50;3.75;;;;;;;;10448437;28;43006;-63
2024/04/15 01:54:52;;;;;;;;;40.00;2.50;;;;;;;;10447526;28;43076;-63
2024/04/15 01:59:56;;;;;;;;;37.25;3.00;;;;;;;;10457833;28;43462;-63
2024/04/15 02:05:01;;;;;;;;;41.75;5.50;;;;;;;;10456348;28;43255;-63
2024/04/15 02:10:06;;;;;;;;;24.50;3.00;;;;;;;;10453408;28;42944;-62
2024/04/15 02:15:10;;;;;;;;;33.00;0.75;;;;;;;;10499579;27;43012;-63
2024/04/15 02:20:14;;;;;;;;;26.25;2.75;;;;;;;;10498476;28;43810;-64
2024/04/15 02:25:18;;;;;;;;;25.75;0.25;;;;;;;;10495671;27;43461;-64
2024/04/15 02:30:21;;;;;;;;;22.50;3.00;;;;;;;;10500394;28;43310;-61
2024/04/15 02:35:24;;;;;;;;;27.50;2.50;;;;;;;;10500674;28;49593;-64
2024/04/15 02:40:28;;;;;;;;;22.25;2.50;;;;;;;;10499571;28;42990;-63
2024/04/15 02:45:32;;;;;;;;;23.50;2.00;;;;;;;;10499537;28;42895;-63
2024/04/15 02:50:36;;;;;;;;;16.00;1.50;;;;;;;;10498876;28;43003;-63
2024/04/15 02:55:41;;;;;;;;;24.75;2.25;;;;;;;;10496055;28;43043;-62
2024/04/15 03:00:46;;;;;;;;;15.00;0.75;;;;;;;;10508145;27;43438;-65
2024/04/15 03:05:51;;;;;;;;;18.50;1.25;;;;;;;;10499289;27;43053;-63
2024/04/15 03:10:54;;;;;;;;;27.00;3.25;;;;;;;;10502371;27;43313;-64
2024/04/15 03:15:59;;;;;;;;;23.50;0.00;;;;;;;;10480266;28;51407;-64
2024/04/15 03:21:06;;;;;;;;;18.75;1.00;;;;;;;;10454686;28;43416;-66
2024/04/15 03:26:10;;;;;;;;;24.75;3.25;;;;;;;;10447026;27;42988;-65
2024/04/15 03:31:13;;;;;;;;;25.00;2.50;;;;;;;;10473779;27;44024;-65
2024/04/15 03:36:17;;;;;;;;;14.00;0.75;;;;;;;;10456817;27;43351;-64
2024/04/15 03:41:21;;;;;;;;;17.75;2.00;;;;;;;;10478975;27;43076;-66
2024/04/15 03:46:27;;;;;;;;;17.50;1.00;;;;;;;;10479149;28;43132;-65
2024/04/15 03:51:31;;;;;;;;;16.25;0.00;;;;;;;;10452476;28;43096;-65
2024/04/15 03:56:36;;;;;;;;;15.25;0.00;;;;;;;;10452048;28;43017;-65
2024/04/15 04:01:40;;;;;;;;;16.25;1.00;;;;;;;;10451113;28;42984;-65
2024/04/15 04:06:46;;;;;;;;;23.75;2.00;;;;;;;;10452001;27;42875;-65
2024/04/15 04:11:49;;;;;;;;;14.75;0.00;;;;;;;;10496855;27;43309;-64
2024/04/15 04:16:53;;;;;;;;;14.00;0.50;;;;;;;;10482164;27;43729;-64
2024/04/15 04:21:58;;;;;;;;;19.00;0.00;;;;;;;;10496086;27;43726;-65
2024/04/15 04:27:02;;;;;;;;;18.00;0.50;;;;;;;;10491679;28;42987;-64
2024/04/15 04:32:06;;;;;;;;;20.00;0.00;;;;;;;;10474846;28;43373;-62
2024/04/15 04:37:09;;;;;;;;;19.00;0.00;;;;;;;;10495801;28;43262;-61
2024/04/15 04:42:13;;;;;;;;;19.00;3.00;;;;;;;;10494041;28;43653;-65
2024/04/15 04:47:19;;;;;;;;;18.75;1.00;;;;;;;;10494456;27;43429;-67
2024/04/15 04:52:23;;;;;;;;;22.00;0.00;;;;;;;;10494688;27;43589;-64
2024/04/15 04:57:27;;;;;;;;;17.00;1.00;;;;;;;;10489022;27;43044;-68
2024/04/15 05:02:31;;;;;;;;;13.00;0.00;;;;;;;;10501820;28;42982;-67
2024/04/15 05:07:35;;;;;;;;;16.50;0.00;;;;;;;;10485951;27;45374;-59
2024/04/15 05:12:38;;;;;;;;;12.75;0.00;;;;;;;;10498653;27;43387;-61
2024/04/15 05:17:42;;;;;;;;;18.00;0.00;;;;;;;;10498654;27;42981;-60
2024/04/15 05:22:46;;;;;;;;;17.00;1.75;;;;;;;;10497452;27;43333;-60
2024/04/15 05:27:50;;;;;;;;;24.00;1.00;;;;;;;;10475833;27;43439;-60
2024/04/15 05:32:54;;;;;;;;;19.00;0.25;;;;;;;;10489991;27;43022;-60
2024/04/15 05:37:58;;;;;;;;;20.00;2.00;;;;;;;;10504569;28;42982;-61
2024/04/15 05:43:12;;;;;;;;;19.25;2.50;;;;;;;;10497901;28;42989;-61
2024/04/15 05:48:17;;;;;;;;;12.75;0.00;;;;;;;;10495061;28;43753;-61
2024/04/15 05:53:19;;;;;;;;;16.00;1.00;;;;;;;;10498457;28;43118;-59
2024/04/15 05:58:22;;;;;;;;;17.50;0.25;;;;;;;;10481156;28;43806;-61
2024/04/15 06:03:24;;;;;;;;;16.75;0.00;;;;;;;;10498482;28;43653;-60
2024/04/15 06:08:30;;;;;;;;;17.75;1.50;;;;;;;;10494333;27;42882;-60
2024/04/15 06:13:33;;;;;;;;;19.00;0.00;;;;;;;;10502616;27;43781;-60
2024/04/15 06:18:37;;;;;;;;;25.75;1.00;;;;;;;;10498340;27;42991;-60
2024/04/15 06:23:42;;;;;;;;;16.00;1.00;;;;;;;;10503308;27;44215;-60
2024/04/15 06:28:46;;;;;;;;;13.50;0.75;;;;;;;;10501027;28;42929;-59
2024/04/15 06:33:50;;;;;;;;;12.00;0.00;;;;;;;;10479497;28;43660;-59
2024/04/15 06:38:55;;;;;;;;;13.50;0.00;;;;;;;;10483664;28;43767;-59
2024/04/15 06:43:59;;;;;;;;;16.50;0.00;;;;;;;;10468226;28;42917;-59
2024/04/15 06:49:03;;;;;;;;;15.50;0.00;;;;;;;;10524051;27;43186;-59
2024/04/15 06:54:07;;;;;;;;;15.00;0.00;;;;;;;;10493129;28;43044;-60
2024/04/15 06:59:11;;;;;;;;;13.00;0.00;;;;;;;;10497424;28;43558;-60
2024/04/15 07:04:15;;;;;;;;;14.25;0.00;;;;;;;;10504020;27;42999;-59
2024/04/15 07:09:20;;;;;;;;;15.00;1.00;;;;;;;;10504016;27;44143;-59
2024/04/15 07:14:24;;;;;;;;;14.25;0.00;;;;;;;;10458694;28;43023;-60
2024/04/15 07:19:27;;;;;;;;;16.75;0.00;;;;;;;;10441882;28;42997;-62
2024/04/15 07:24:32;;;;;;;;;15.75;0.00;;;;;;;;10447092;28;43527;-60
2024/04/15 07:29:36;;;;;;;;;16.75;2.25;;;;;;;;10453503;28;43771;-62
2024/04/15 07:34:43;;;;;;;;;16.00;1.00;;;;;;;;10449642;28;43376;-62
2024/04/15 07:39:46;;;;;;;;;13.00;0.25;;;;;;;;10442338;28;43597;-62
2024/04/15 07:44:51;;;;;;;;;15.50;1.00;;;;;;;;10423548;28;43329;-63
2024/04/15 07:49:55;;;;;;;;;17.25;0.50;;;;;;;;10465359;28;43026;-61
2024/04/15 07:54:58;;;;;;;;;21.00;2.00;;;;;;;;10450846;28;43923;-62
2024/04/15 08:00:04;;;;;;;;;12.00;0.00;;;;;;;;10450033;28;43810;-62
2024/04/15 08:05:13;;;;;;;;;15.75;1.00;;;;;;;;10460384;28;43014;-61
2024/04/15 08:10:17;;;;;;;;;15.00;1.75;;;;;;;;10455782;28;43046;-62
2024/04/15 08:15:20;;;;;;;;;16.00;0.75;;;;;;;;10496067;28;43951;-63
2024/04/15 08:20:24;;;;;;;;;16.25;0.00;;;;;;;;10496672;28;43011;-63
2024/04/15 08:25:28;;;;;;;;;16.75;1.75;;;;;;;;10496301;28;43043;-63
2024/04/15 08:30:34;;;;;;;;;16.75;0.75;;;;;;;;10497076;28;42959;-63
2024/04/15 08:35:38;;;;;;;;;13.50;0.75;;;;;;;;10495667;28;44969;-63
2024/04/15 08:41:01;;;;;;;;;14.75;1.00;;;;;;;;10504427;27;43082;-63
2024/04/15 08:46:04;;;;;;;;;16.00;0.50;;;;;;;;10500100;28;48542;-63
2024/04/15 08:51:07;;;;;;;;;13.00;0.00;;;;;;;;10495113;27;49832;-63
2024/04/15 08:56:10;;;;;;;;;13.00;0.00;;;;;;;;10495771;28;43128;-63
2024/04/15 09:01:15;;;;;;;;;14.00;1.00;;;;;;;;10496666;27;42996;-63
2024/04/15 09:06:19;;;;;;;;;15.50;1.00;;;;;;;;10495854;28;43068;-63
2024/04/15 09:11:23;;;;;;;;;12.00;0.00;;;;;;;;10495047;27;42986;-63
2024/04/15 09:16:28;;;;;;;;;16.50;1.50;;;;;;;;10494447;28;42985;-63
2024/04/15 09:21:33;;;;;;;;;13.50;0.00;;;;;;;;10495000;28;43589;-63
2024/04/15 09:26:37;;;;;;;;;14.25;0.00;;;;;;;;10449481;28;44152;-63
2024/04/15 09:31:41;;;;;;;;;13.00;0.00;;;;;;;;10452101;28;43065;-63
2024/04/15 09:36:46;;;;;;;;;17.50;1.00;;;;;;;;10452282;28;43931;-62
2024/04/15 09:41:52;;;;;;;;;12.00;0.00;;;;;;;;10452578;28;42992;-62
2024/04/15 09:46:56;;;;;;;;;12.00;0.00;;;;;;;;10456647;28;43194;-62
2024/04/15 09:52:05;;;;;;;;;18.75;0.25;;;;;;;;10472866;28;42981;-64
2024/04/15 09:57:14;;;;;;;;;12.25;0.00;;;;;;;;10464745;28;43300;-65
2024/04/15 10:02:26;;;;;;;;;17.25;1.25;;;;;;;;10455354;28;44857;-66
2024/04/15 10:07:31;;;;;;;;;16.25;1.00;;;;;;;;10450245;28;43021;-66
2024/04/15 10:12:35;;;;;;;;;13.00;0.00;;;;;;;;10460365;27;43297;-65
2024/04/15 10:17:38;;;;;;;;;20.00;0.00;;;;;;;;10461470;28;43003;-64
2024/04/15 10:22:42;;;;;;;;;16.00;0.00;;;;;;;;10470220;28;43013;-64
2024/04/15 10:27:46;;;;;;;;;12.00;0.00;;;;;;;;10476472;28;43057;-63
2024/04/15 10:32:55;;;;;;;;;45.50;4.00;;;;;;;;10459138;28;43177;-61
2024/04/15 10:37:59;;;;;;;;;16.00;0.00;;;;;;;;10461463;28;44059;-63
2024/04/15 10:43:03;;;;;;;;;12.00;0.00;;;;;;;;10465540;28;43116;-66
2024/04/15 10:48:07;;;;;;;;;16.75;0.50;;;;;;;;10459982;28;43717;-63
2024/04/15 10:53:11;;;;;;;;;15.50;0.00;;;;;;;;10460091;28;43200;-62
2024/04/15 10:58:16;;;;;;;;;13.75;0.00;;;;;;;;10441091;28;43257;-64
2024/04/15 11:03:23;;;;;;;;;17.00;0.00;;;;;;;;10448341;28;44929;-63
2024/04/15 11:08:28;;;;;;;;;13.75;0.00;;;;;;;;10464321;28;43759;-62
2024/04/15 11:13:32;;;;;;;;;13.00;0.25;;;;;;;;10480822;28;43233;-62
2024/04/15 11:18:36;;;;;;;;;15.75;1.00;;;;;;;;10500947;28;43311;-64
2024/04/15 11:23:40;;;;;;;;;14.50;1.00;;;;;;;;10497722;28;43308;-65
2024/04/15 11:28:45;;;;;;;;;15.00;0.00;;;;;;;;10502996;28;43895;-64
2024/04/15 11:33:49;;;;;;;;;12.75;0.00;;;;;;;;10481011;28;44391;-61
2024/04/15 11:38:54;;;;;;;;;14.75;2.00;;;;;;;;10497562;28;43737;-64
2024/04/15 11:43:58;;;;;;;;;14.50;0.25;;;;;;;;10496838;28;43094;-61
2024/04/15 11:49:03;;;;;;;;;13.25;0.00;;;;;;;;10497180;28;42973;-61
2024/04/15 11:54:06;;;;;;;;;12.75;0.00;;;;;;;;10495739;28;43584;-59
2024/04/15 11:59:11;;;;;;;;;12.00;0.00;;;;;;;;10498704;27;43654;-63
2024/04/15 12:04:17;;;;;;;;;16.00;2.00;;;;;;;;10494714;28;42970;-63
2024/04/15 12:09:25;;;;;;;;;18.75;0.00;;;;;;;;10499130;27;43838;-61
2024/04/15 12:14:29;;;;;;;;;16.75;0.00;;;;;;;;10491924;27;43151;-63
2024/04/15 12:19:33;;;;;;;;;18.25;0.00;;;;;;;;10495548;28;43065;-63
2024/04/15 12:24:36;;;;;;;;;26.25;0.50;;;;;;;;10497140;27;43755;-64
2024/04/15 12:29:40;;;;;;;;;16.00;0.25;;;;;;;;10491842;28;42954;-64
2024/04/15 12:34:43;;;;;;;;;17.75;0.00;;;;;;;;10484225;27;44670;-62
2024/04/15 12:39:47;;;;;;;;;21.00;1.00;;;;;;;;10495412;27;43012;-65
2024/04/15 12:44:51;;;;;;;;;15.00;0.00;;;;;;;;10480143;27;43484;-62
2024/04/15 12:49:55;;;;;;;;;16.50;0.00;;;;;;;;10499674;27;43035;-62
2024/04/15 12:55:00;;;;;;;;;13.75;0.00;;;;;;;;10493931;28;43014;-63
2024/04/15 13:00:05;;;;;;;;;14.00;0.00;;;;;;;;10493108;27;48624;-64
2024/04/15 13:05:09;;;;;;;;;14.00;0.00;;;;;;;;10498719;28;48744;-64
2024/04/15 13:10:13;;;;;;;;;15.00;0.00;;;;;;;;10480547;27;43615;-65
2024/04/15 13:15:16;;;;;;;;;12.00;0.00;;;;;;;;10494000;28;43257;-66
2024/04/15 13:20:22;;;;;;;;;17.00;0.00;;;;;;;;10491835;27;49480;-61
2024/04/15 13:25:25;;;;;;;;;15.25;0.25;;;;;;;;10505515;27;48841;-62
2024/04/15 13:30:29;;;;;;;;;11.50;0.00;;;;;;;;10500400;28;43050;-63
2024/04/15 13:35:33;;;;;;;;;16.00;0.00;;;;;;;;10488936;27;49456;-62
2024/04/15 13:40:36;;;;;;;;;17.75;1.00;;;;;;;;10504314;27;48377;-62
2024/04/15 13:45:40;;;;;;;;;17.50;0.00;;;;;;;;10504545;28;44191;-62
2024/04/15 13:50:43;;;;;;;;;16.25;0.00;;;;;;;;10497038;28;48398;-61
2024/04/15 13:55:47;;;;;;;;;20.25;0.00;;;;;;;;10492361;27;49653;-62
2024/04/15 14:00:54;;;;;;;;;14.50;0.00;;;;;;;;10500907;27;49679;-62
2024/04/15 14:05:58;;;;;;;;;13.75;0.00;;;;;;;;10484125;27;50480;-62
2024/04/15 14:11:05;;;;;;;;;16.00;0.00;;;;;;;;10499943;27;48657;-61
2024/04/15 14:16:10;;;;;;;;;16.00;0.00;;;;;;;;10501003;27;44104;-62
2024/04/15 14:21:14;;;;;;;;;14.00;0.00;;;;;;;;10500454;27;43798;-62
2024/04/15 14:26:17;;;;;;;;;13.00;0.00;;;;;;;;10499678;27;42918;-62
2024/04/15 14:31:20;;;;;;;;;12.00;0.00;;;;;;;;10498376;27;43027;-61
2024/04/15 14:36:24;;;;;;;;;12.00;0.00;;;;;;;;10481827;27;42982;-62
2024/04/15 14:41:27;;;;;;;;;11.00;0.00;;;;;;;;10490551;28;43320;-61
2024/04/15 14:46:31;;;;;;;;;15.33;0.00;;;;;;;;10497911;27;43024;-61
2024/04/15 14:51:36;;;;;;;;;14.00;0.00;;;;;;;;10497098;28;42962;-62
2024/04/15 14:56:40;;;;;;;;;12.50;0.50;;;;;;;;10497716;28;43176;-62
2024/04/15 15:01:43;;;;;;;;;11.67;0.00;;;;;;;;10497845;27;44181;-62
2024/04/15 15:06:47;;;;;;;;;11.00;0.00;;;;;;;;10496500;28;43499;-60
2024/04/15 15:11:51;;;;;;;;;18.00;0.00;;;;;;;;10493303;28;43474;-60
2024/04/15 15:16:55;;;;;;;;;10.75;0.00;;;;;;;;10498184;27;43478;-59
2024/04/15 15:21:59;;;;;;;;;13.00;0.00;;;;;;;;10496632;27;43955;-61
2024/04/15 15:27:03;;;;;;;;;15.67;0.00;;;;;;;;10480537;28;44862;-61
2024/04/15 15:32:07;;;;;;;;;11.67;0.00;;;;;;;;10497324;28;43508;-61
2024/04/15 15:37:12;;;;;;;;;14.00;0.00;;;;;;;;10496293;27;43747;-62
2024/04/15 15:42:16;;;;;;;;;13.25;1.00;;;;;;;;10495875;27;43031;-61
2024/04/15 15:47:19;;;;;;;;;11.00;0.00;;;;;;;;10480214;27;43102;-62
2024/04/15 15:52:23;;;;;;;;;11.75;0.00;;;;;;;;10496869;28;43480;-60
2024/04/15 15:57:27;;;;;;;;;10.75;0.00;;;;;;;;10497514;28;44520;-62
2024/04/15 16:02:32;;;;;;;;;13.00;0.00;;;;;;;;10497147;28;43523;-59
2024/04/15 16:07:35;;;;;;;;;11.75;0.00;;;;;;;;10496261;28;43010;-60
2024/04/15 16:12:40;;;;;;;;;12.00;0.00;;;;;;;;10487776;28;42908;-60
2024/04/15 16:17:43;;;;;;;;;11.00;0.00;;;;;;;;10437052;28;44566;-60
2024/04/15 16:22:47;;;;;;;;;12.00;0.00;;;;;;;;10423584;28;42987;-59
2024/04/15 16:27:50;;;;;;;;;12.25;0.00;;;;;;;;10420226;28;43004;-60
2024/04/15 16:32:54;;;;;;;;;13.00;0.00;;;;;;;;10397018;28;42988;-60
2024/04/15 16:37:58;;;;;;;;;11.00;0.00;;;;;;;;10412010;28;43758;-60
2024/04/15 16:43:02;;;;;;;;;10.50;0.00;;;;;;;;10412269;28;43992;-60
2024/04/15 16:48:06;;;;;;;;;11.50;0.00;;;;;;;;10411232;28;43210;-60
2024/04/15 16:53:10;;;;;;;;;10.75;0.00;;;;;;;;10454251;28;43588;-60
2024/04/15 16:58:14;;;;;;;;;11.00;0.00;;;;;;;;10453464;28;43003;-59
2024/04/15 17:03:17;;;;;;;;;13.00;0.00;;;;;;;;10451351;28;43126;-60
2024/04/15 17:08:21;;;;;;;;;11.00;0.00;;;;;;;;10453175;28;43002;-60
2024/04/15 17:13:27;;;;;;;;;11.00;0.00;;;;;;;;10463892;28;43147;-60
2024/04/15 17:18:30;;;;;;;;;11.25;0.00;;;;;;;;10494332;27;43088;-60
2024/04/15 17:23:34;;;;;;;;;11.25;0.00;;;;;;;;10490676;28;42998;-60
2024/04/15 17:28:38;;;;;;;;;11.25;0.00;;;;;;;;10493755;28;43751;-60
2024/04/15 17:33:43;;;;;;;;;11.00;0.00;;;;;;;;10495603;28;43602;-60
2024/04/15 17:38:47;;;;;;;;;10.50;0.00;;;;;;;;10492479;28;44037;-60
2024/04/15 17:43:51;;;;;;;;;11.00;0.00;;;;;;;;10490891;28;43008;-60
2024/04/15 17:48:57;;;;;;;;;11.75;0.00;;;;;;;;10493049;28;43236;-60
2024/04/15 17:54:00;;;;;;;;;11.00;0.00;;;;;;;;10494022;28;43276;-60
2024/04/15 17:59:04;;;;;;;;;11.00;0.00;;;;;;;;10494045;28;43609;-59
2024/04/15 18:04:09;;;;;;;;;13.75;0.00;;;;;;;;10494811;28;43617;-59
2024/04/15 18:09:13;;;;;;;;;12.25;0.00;;;;;;;;10500071;28;42953;-59
2024/04/15 18:14:17;;;;;;;;;12.00;0.00;;;;;;;;10500542;28;42942;-59
2024/04/15 18:19:21;;;;;;;;;11.00;0.00;;;;;;;;10487553;27;43253;-59
2024/04/15 18:24:28;;;;;;;;;13.00;0.00;;;;;;;;10497986;28;43565;-59
2024/04/15 18:29:31;;;;;;;;;12.00;0.00;;;;;;;;10499660;28;43014;-60
2024/04/15 18:34:35;;;;;;;;;11.00;0.00;;;;;;;;10499542;28;42944;-59
2024/04/15 18:39:39;;;;;;;;;12.00;0.00;;;;;;;;10500778;28;43267;-59
2024/04/15 18:44:43;;;;;;;;;11.00;0.00;;;;;;;;10499104;28;42997;-59
2024/04/15 18:49:48;;;;;;;;;11.25;0.00;;;;;;;;10499352;28;43072;-60
2024/04/15 18:54:51;;;;;;;;;11.00;0.00;;;;;;;;10499732;28;43577;-60
2024/04/15 18:59:55;;;;;;;;;11.00;0.00;;;;;;;;10491143;28;43636;-60
2024/04/15 19:04:59;;;;;;;;;11.00;0.00;;;;;;;;10499553;28;43474;-60
2024/04/15 19:10:03;;;;;;;;;10.00;0.00;;;;;;;;10507225;28;43246;-60
2024/04/15 19:15:09;;;;;;;;;12.00;0.00;;;;;;;;10471160;28;43134;-60
2024/04/15 19:20:13;;;;;;;;;12.50;0.00;;;;;;;;10455702;28;44271;-60
2024/04/15 19:25:16;;;;;;;;;13.50;0.00;;;;;;;;10439918;28;43594;-60
2024/04/15 19:30:20;;;;;;;;;11.75;0.00;;;;;;;;10455773;28;42961;-60
2024/04/15 19:35:24;;;;;;;;;12.00;0.00;;;;;;;;10455852;28;42984;-60
2024/04/15 19:40:28;;;;;;;;;11.00;0.00;;;;;;;;10456621;28;43604;-60
2024/04/15 19:45:32;;;;;;;;;11.00;0.00;;;;;;;;10456008;28;43886;-60
2024/04/15 19:50:38;;;;;;;;;12.00;0.00;;;;;;;;10456215;28;43698;-60
2024/04/15 19:55:42;;;;;;;;;12.25;0.00;;;;;;;;10455877;28;43750;-60
2024/04/15 20:00:46;;;;;;;;;11.00;0.00;;;;;;;;10454640;28;42960;-60
2024/04/15 20:05:49;;;;;;;;;11.25;0.00;;;;;;;;10455441;28;42972;-60
2024/04/15 20:10:53;;;;;;;;;10.50;0.00;;;;;;;;10455620;28;43771;-60
2024/04/15 20:15:57;;;;;;;;;11.25;0.00;;;;;;;;10453704;28;43624;-60
2024/04/15 20:21:01;;;;;;;;;12.25;0.00;;;;;;;;10438276;28;43348;-60
2024/04/15 20:26:07;;;;;;;;;11.67;0.00;;;;;;;;10453975;28;48583;-60
2024/04/15 20:31:11;;;;;;;;;13.00;0.00;;;;;;;;10423009;28;43015;-60
2024/04/15 20:36:14;;;;;;;;;14.00;0.00;;;;;;;;10446340;28;43619;-60
2024/04/15 20:41:19;;;;;;;;;11.75;0.00;;;;;;;;10453271;28;43059;-59
2024/04/15 20:46:23;;;;;;;;;12.00;0.00;;;;;;;;10442271;28;43744;-59
2024/04/15 20:51:27;;;;;;;;;12.75;0.75;;;;;;;;10449328;28;43794;-64
2024/04/15 20:56:30;;;;;;;;;13.50;0.00;;;;;;;;10441341;28;44547;-61
2024/04/15 21:01:34;;;;;;;;;15.00;1.00;;;;;;;;10437066;28;43006;-62
2024/04/15 21:06:37;;;;;;;;;16.75;0.75;;;;;;;;10451855;28;44021;-64
2024/04/15 21:11:41;;;;;;;;;19.75;3.50;;;;;;;;10451306;28;43000;-63
2024/04/15 21:16:47;;;;;;;;;15.50;0.00;;;;;;;;10491531;28;42963;-63
2024/04/15 21:21:50;;;;;;;;;12.00;0.00;;;;;;;;10486623;28;43024;-62
2024/04/15 21:26:54;;;;;;;;;12.50;0.00;;;;;;;;10486968;27;44188;-61
2024/04/15 21:31:57;;;;;;;;;13.75;0.00;;;;;;;;10492444;28;43645;-60
2024/04/15 21:37:01;;;;;;;;;16.00;0.00;;;;;;;;10488811;27;45006;-61
2024/04/15 21:42:05;;;;;;;;;15.00;0.00;;;;;;;;10471767;27;43045;-61
2024/04/15 21:47:09;;;;;;;;;13.75;0.00;;;;;;;;10486013;27;43485;-61
2024/04/15 21:52:12;;;;;;;;;15.75;1.00;;;;;;;;10476984;28;43482;-63
2024/04/15 21:57:16;;;;;;;;;15.50;1.00;;;;;;;;10477254;28;42995;-62
2024/04/15 22:02:19;;;;;;;;;13.25;0.50;;;;;;;;10485617;28;43592;-62
2024/04/15 22:07:23;;;;;;;;;17.00;0.00;;;;;;;;10490219;28;43143;-62
2024/04/15 22:12:27;;;;;;;;;13.00;0.25;;;;;;;;10480979;27;43578;-62
2024/04/15 22:17:33;;;;;;;;;18.75;1.25;;;;;;;;10484011;27;42951;-62
2024/04/15 22:22:37;;;;;;;;;26.25;1.25;;;;;;;;10500773;27;42986;-63
2024/04/15 22:27:41;;;;;;;;;23.00;2.50;;;;;;;;10506316;27;42941;-64
2024/04/15 22:32:44;;;;;;;;;21.25;3.75;;;;;;;;10490013;27;43016;-62
2024/04/15 22:37:48;;;;;;;;;17.50;2.50;;;;;;;;10480506;27;43994;-65
2024/04/15 22:42:52;;;;;;;;;18.75;0.75;;;;;;;;10465304;27;43022;-63
2024/04/15 22:47:55;;;;;;;;;16.25;0.50;;;;;;;;10494965;27;43013;-64
2024/04/15 22:52:59;;;;;;;;;16.50;2.50;;;;;;;;10473501;28;43753;-63
2024/04/15 22:58:04;;;;;;;;;16.00;0.25;;;;;;;;10471619;28;43724;-62
2024/04/15 23:03:08;;;;;;;;;16.00;0.00;;;;;;;;10484119;28;43203;-62
2024/04/15 23:08:11;;;;;;;;;14.75;0.25;;;;;;;;10463679;28;43242;-63
2024/04/15 23:13:14;;;;;;;;;23.50;2.25;;;;;;;;10455039;27;45098;-63
2024/04/15 23:18:19;;;;;;;;;20.00;2.25;;;;;;;;10451561;27;44387;-61
2024/04/15 23:23:22;;;;;;;;;16.75;1.25;;;;;;;;10473424;28;42967;-61
2024/04/15 23:28:26;;;;;;;;;27.00;4.50;;;;;;;;10489209;28;44084;-63
2024/04/15 23:33:30;;;;;;;;;20.25;5.25;;;;;;;;10496748;28;43150;-64
2024/04/15 23:38:33;;;;;;;;;24.75;2.25;;;;;;;;10490104;28;43069;-64
2024/04/15 23:43:36;;;;;;;;;17.00;2.00;;;;;;;;10491643;28;43296;-58
2024/04/15 23:48:58;;;;;;;;;23.25;1.75;;;;;;;;10491512;28;43051;-62
2024/04/15 23:54:19;;;;;;;;;19.50;3.75;;;;;;;;10492328;28;42942;-60
2024/04/15 23:59:41;;;;;;;;;23.75;2.00;;;;;;;;10490824;28;43038;-59
